sensor_id;sensor_type;location;lat;lon;timestamp;pressure;altitude;pressure_sealevel;temperature;humidity
71165;BME280;58859;55.132;-1.586;2023-12-20T00:02:08;100651.59;;;17.50;100.00
71165;BME280;58859;55.132;-1.586;2023-12-20T00:04:34;100659.22;;;19.00;100.00
71165;BME280;58859;55.132;-1.586;2023-12-20T00:06:59;100656.22;;;17.75;100.00
71165;BME280;58859;55.132;-1.586;2023-12-20T00:09:25;100650.47;;;18.60;100.00
71165;BME280;58859;55.132;-1.586;2023-12-20T00:11:50;100634.38;;;16.64;100.00
71165;BME280;58859;55.132;-1.586;2023-12-20T00:14:16;100623.09;;;18.48;100.00
71165;BME280;58859;55.132;-1.586;2023-12-20T00:16:41;100613.41;;;17.95;100.00
71165;BME280;58859;55.132;-1.586;2023-12-20T00:19:07;100607.78;;;18.11;100.00
71165;BME280;58859;55.132;-1.586;2023-12-20T00:21:32;100603.44;;;18.97;100.00
71165;BME280;58859;55.132;-1.586;2023-12-20T00:23:58;100590.97;;;18.12;100.00
71165;BME280;58859;55.132;-1.586;2023-12-20T00:26:23;100598.22;;;17.97;100.00
71165;BME280;58859;55.132;-1.586;2023-12-20T00:28:49;100604.84;;;17.79;100.00
71165;BME280;58859;55.132;-1.586;2023-12-20T00:31:14;100598.31;;;18.29;100.00
71165;BME280;58859;55.132;-1.586;2023-12-20T00:33:40;100607.56;;;18.06;100.00
71165;BME280;58859;55.132;-1.586;2023-12-20T00:36:08;100622.25;;;18.41;100.00
71165;BME280;58859;55.132;-1.586;2023-12-20T00:38:34;100612.53;;;17.81;100.00
71165;BME280;58859;55.132;-1.586;2023-12-20T00:41:00;100615.59;;;17.16;100.00
71165;BME280;58859;55.132;-1.586;2023-12-20T00:43:25;100605.00;;;18.32;100.00
71165;BME280;58859;55.132;-1.586;2023-12-20T00:45:51;100618.31;;;17.63;100.00
71165;BME280;58859;55.132;-1.586;2023-12-20T00:48:17;100609.44;;;18.25;100.00
71165;BME280;58859;55.132;-1.586;2023-12-20T00:50:42;100619.75;;;17.04;100.00
71165;BME280;58859;55.132;-1.586;2023-12-20T00:53:08;100620.22;;;17.48;100.00
71165;BME280;58859;55.132;-1.586;2023-12-20T00:55:33;100615.53;;;16.60;100.00
71165;BME280;58859;55.132;-1.586;2023-12-20T00:57:59;100619.72;;;18.07;100.00
71165;BME280;58859;55.132;-1.586;2023-12-20T01:00:25;100610.28;;;18.32;100.00
71165;BME280;58859;55.132;-1.586;2023-12-20T01:02:50;100612.88;;;18.19;100.00
71165;BME280;58859;55.132;-1.586;2023-12-20T01:05:17;100612.34;;;17.83;100.00
71165;BME280;58859;55.132;-1.586;2023-12-20T01:07:43;100601.31;;;18.07;100.00
71165;BME280;58859;55.132;-1.586;2023-12-20T01:10:08;100601.69;;;18.04;100.00
71165;BME280;58859;55.132;-1.586;2023-12-20T01:12:36;100602.59;;;18.30;100.00
71165;BME280;58859;55.132;-1.586;2023-12-20T01:15:01;100597.72;;;17.67;100.00
71165;BME280;58859;55.132;-1.586;2023-12-20T01:17:27;100596.34;;;18.71;100.00
71165;BME280;58859;55.132;-1.586;2023-12-20T01:19:52;100600.13;;;18.16;100.00
71165;BME280;58859;55.132;-1.586;2023-12-20T01:22:18;100598.50;;;19.52;100.00
71165;BME280;58859;55.132;-1.586;2023-12-20T01:24:44;100596.41;;;20.75;100.00
71165;BME280;58859;55.132;-1.586;2023-12-20T01:27:09;100597.75;;;18.47;100.00
71165;BME280;58859;55.132;-1.586;2023-12-20T01:29:35;100594.94;;;18.88;100.00
71165;BME280;58859;55.132;-1.586;2023-12-20T01:32:00;100595.41;;;17.98;100.00
71165;BME280;58859;55.132;-1.586;2023-12-20T01:34:25;100604.50;;;17.96;100.00
71165;BME280;58859;55.132;-1.586;2023-12-20T01:36:51;100583.88;;;19.57;100.00
71165;BME280;58859;55.132;-1.586;2023-12-20T01:39:17;100581.47;;;19.55;100.00
71165;BME280;58859;55.132;-1.586;2023-12-20T01:41:43;100594.59;;;19.75;100.00
71165;BME280;58859;55.132;-1.586;2023-12-20T01:44:08;100597.38;;;19.09;100.00
71165;BME280;58859;55.132;-1.586;2023-12-20T01:46:34;100587.88;;;17.82;100.00
71165;BME280;58859;55.132;-1.586;2023-12-20T01:48:59;100571.44;;;18.80;100.00
71165;BME280;58859;55.132;-1.586;2023-12-20T01:51:26;100575.69;;;18.74;100.00
71165;BME280;58859;55.132;-1.586;2023-12-20T01:53:55;100601.72;;;17.56;100.00
71165;BME280;58859;55.132;-1.586;2023-12-20T01:56:22;100585.22;;;18.69;100.00
71165;BME280;58859;55.132;-1.586;2023-12-20T01:58:48;100593.25;;;18.34;100.00
71165;BME280;58859;55.132;-1.586;2023-12-20T02:01:14;100574.03;;;19.00;100.00
71165;BME280;58859;55.132;-1.586;2023-12-20T02:03:42;100592.38;;;19.72;100.00
71165;BME280;58859;55.132;-1.586;2023-12-20T02:06:09;100601.50;;;19.69;100.00
71165;BME280;58859;55.132;-1.586;2023-12-20T02:08:35;100593.81;;;20.05;100.00
71165;BME280;58859;55.132;-1.586;2023-12-20T02:11:01;100600.81;;;20.31;100.00
71165;BME280;58859;55.132;-1.586;2023-12-20T02:13:27;100592.38;;;19.59;100.00
71165;BME280;58859;55.132;-1.586;2023-12-20T02:15:53;100583.53;;;19.91;100.00
71165;BME280;58859;55.132;-1.586;2023-12-20T02:18:19;100595.16;;;19.83;100.00
71165;BME280;58859;55.132;-1.586;2023-12-20T02:20:45;100599.84;;;20.26;100.00
71165;BME280;58859;55.132;-1.586;2023-12-20T02:23:10;100595.13;;;20.59;100.00
71165;BME280;58859;55.132;-1.586;2023-12-20T02:25:35;100605.28;;;20.62;100.00
71165;BME280;58859;55.132;-1.586;2023-12-20T02:28:01;100597.81;;;21.45;100.00
71165;BME280;58859;55.132;-1.586;2023-12-20T02:30:27;100589.47;;;20.55;100.00
71165;BME280;58859;55.132;-1.586;2023-12-20T02:32:53;100600.53;;;20.71;100.00
71165;BME280;58859;55.132;-1.586;2023-12-20T02:35:19;100606.44;;;20.03;100.00
71165;BME280;58859;55.132;-1.586;2023-12-20T02:37:44;100594.19;;;19.71;100.00
71165;BME280;58859;55.132;-1.586;2023-12-20T02:40:10;100600.88;;;21.60;100.00
71165;BME280;58859;55.132;-1.586;2023-12-20T02:42:35;100584.41;;;21.94;100.00
71165;BME280;58859;55.132;-1.586;2023-12-20T02:45:01;100595.72;;;20.61;100.00
71165;BME280;58859;55.132;-1.586;2023-12-20T02:47:26;100597.25;;;19.62;100.00
71165;BME280;58859;55.132;-1.586;2023-12-20T02:49:52;100613.34;;;19.98;100.00
71165;BME280;58859;55.132;-1.586;2023-12-20T02:52:18;100616.03;;;21.35;100.00
71165;BME280;58859;55.132;-1.586;2023-12-20T02:54:43;100618.50;;;19.86;100.00
71165;BME280;58859;55.132;-1.586;2023-12-20T02:57:09;100609.53;;;18.77;100.00
71165;BME280;58859;55.132;-1.586;2023-12-20T02:59:34;100602.84;;;19.91;100.00
71165;BME280;58859;55.132;-1.586;2023-12-20T03:01:59;100604.50;;;19.79;100.00
71165;BME280;58859;55.132;-1.586;2023-12-20T03:04:25;100612.06;;;21.01;100.00
71165;BME280;58859;55.132;-1.586;2023-12-20T03:06:50;100610.69;;;20.42;100.00
71165;BME280;58859;55.132;-1.586;2023-12-20T03:09:16;100618.16;;;21.08;100.00
71165;BME280;58859;55.132;-1.586;2023-12-20T03:11:41;100625.91;;;21.64;100.00
71165;BME280;58859;55.132;-1.586;2023-12-20T03:14:07;100629.88;;;20.31;100.00
71165;BME280;58859;55.132;-1.586;2023-12-20T03:16:32;100636.06;;;20.75;100.00
71165;BME280;58859;55.132;-1.586;2023-12-20T03:18:58;100618.03;;;19.32;100.00
71165;BME280;58859;55.132;-1.586;2023-12-20T03:21:23;100624.63;;;20.18;100.00
71165;BME280;58859;55.132;-1.586;2023-12-20T03:23:49;100633.56;;;18.28;100.00
71165;BME280;58859;55.132;-1.586;2023-12-20T03:26:14;100629.91;;;19.74;100.00
71165;BME280;58859;55.132;-1.586;2023-12-20T03:28:40;100638.00;;;19.79;100.00
71165;BME280;58859;55.132;-1.586;2023-12-20T03:31:05;100640.06;;;20.84;100.00
71165;BME280;58859;55.132;-1.586;2023-12-20T03:33:30;100651.00;;;19.74;100.00
71165;BME280;58859;55.132;-1.586;2023-12-20T03:35:56;100658.69;;;20.39;100.00
71165;BME280;58859;55.132;-1.586;2023-12-20T03:38:22;100657.88;;;20.32;100.00
71165;BME280;58859;55.132;-1.586;2023-12-20T03:40:49;100635.94;;;20.94;100.00
71165;BME280;58859;55.132;-1.586;2023-12-20T03:43:15;100651.75;;;20.00;100.00
71165;BME280;58859;55.132;-1.586;2023-12-20T03:45:41;100642.94;;;20.82;100.00
71165;BME280;58859;55.132;-1.586;2023-12-20T03:48:07;100636.72;;;18.78;100.00
71165;BME280;58859;55.132;-1.586;2023-12-20T03:50:32;100631.13;;;20.29;100.00
71165;BME280;58859;55.132;-1.586;2023-12-20T03:52:57;100645.75;;;20.25;100.00
71165;BME280;58859;55.132;-1.586;2023-12-20T03:55:23;100649.94;;;19.88;100.00
71165;BME280;58859;55.132;-1.586;2023-12-20T03:57:48;100653.56;;;19.10;100.00
71165;BME280;58859;55.132;-1.586;2023-12-20T04:00:14;100646.25;;;19.12;100.00
71165;BME280;58859;55.132;-1.586;2023-12-20T04:02:40;100647.66;;;19.21;100.00
71165;BME280;58859;55.132;-1.586;2023-12-20T04:05:07;100653.66;;;19.74;100.00
71165;BME280;58859;55.132;-1.586;2023-12-20T04:07:33;100654.13;;;18.72;100.00
71165;BME280;58859;55.132;-1.586;2023-12-20T04:09:59;100652.94;;;18.75;100.00
71165;BME280;58859;55.132;-1.586;2023-12-20T04:12:26;100647.13;;;20.34;100.00
71165;BME280;58859;55.132;-1.586;2023-12-20T04:14:51;100647.59;;;19.67;100.00
71165;BME280;58859;55.132;-1.586;2023-12-20T04:17:17;100653.31;;;19.57;100.00
71165;BME280;58859;55.132;-1.586;2023-12-20T04:19:43;100641.34;;;19.22;100.00
71165;BME280;58859;55.132;-1.586;2023-12-20T04:22:08;100634.50;;;19.01;100.00
71165;BME280;58859;55.132;-1.586;2023-12-20T04:24:34;100640.63;;;19.79;100.00
71165;BME280;58859;55.132;-1.586;2023-12-20T04:26:59;100617.84;;;19.20;100.00
71165;BME280;58859;55.132;-1.586;2023-12-20T04:29:25;100622.75;;;20.63;100.00
71165;BME280;58859;55.132;-1.586;2023-12-20T04:31:50;100621.28;;;17.95;100.00
71165;BME280;58859;55.132;-1.586;2023-12-20T04:34:17;100620.63;;;18.47;100.00
71165;BME280;58859;55.132;-1.586;2023-12-20T04:36:42;100625.97;;;19.06;100.00
71165;BME280;58859;55.132;-1.586;2023-12-20T04:39:08;100621.63;;;20.08;100.00
71165;BME280;58859;55.132;-1.586;2023-12-20T04:41:33;100628.31;;;19.66;100.00
71165;BME280;58859;55.132;-1.586;2023-12-20T04:43:59;100623.47;;;21.99;100.00
71165;BME280;58859;55.132;-1.586;2023-12-20T04:46:25;100625.09;;;19.58;100.00
71165;BME280;58859;55.132;-1.586;2023-12-20T04:48:51;100620.66;;;19.45;100.00
71165;BME280;58859;55.132;-1.586;2023-12-20T04:51:16;100617.84;;;19.91;100.00
71165;BME280;58859;55.132;-1.586;2023-12-20T04:53:42;100611.53;;;19.28;100.00
71165;BME280;58859;55.132;-1.586;2023-12-20T04:56:07;100606.69;;;20.33;100.00
71165;BME280;58859;55.132;-1.586;2023-12-20T04:58:33;100615.34;;;18.40;100.00
71165;BME280;58859;55.132;-1.586;2023-12-20T05:00:58;100615.75;;;19.55;100.00
71165;BME280;58859;55.132;-1.586;2023-12-20T05:03:24;100621.06;;;19.16;100.00
71165;BME280;58859;55.132;-1.586;2023-12-20T05:05:49;100618.84;;;21.40;100.00
71165;BME280;58859;55.132;-1.586;2023-12-20T05:08:15;100637.47;;;20.08;100.00
71165;BME280;58859;55.132;-1.586;2023-12-20T05:10:40;100627.50;;;19.59;100.00
71165;BME280;58859;55.132;-1.586;2023-12-20T05:13:06;100610.75;;;19.14;100.00
71165;BME280;58859;55.132;-1.586;2023-12-20T05:15:31;100602.38;;;19.30;100.00
71165;BME280;58859;55.132;-1.586;2023-12-20T05:17:57;100607.19;;;19.66;100.00
71165;BME280;58859;55.132;-1.586;2023-12-20T05:20:22;100615.47;;;19.83;100.00
71165;BME280;58859;55.132;-1.586;2023-12-20T05:22:48;100620.63;;;18.47;100.00
71165;BME280;58859;55.132;-1.586;2023-12-20T05:25:14;100608.41;;;20.15;100.00
71165;BME280;58859;55.132;-1.586;2023-12-20T05:27:39;100612.94;;;20.39;100.00
71165;BME280;58859;55.132;-1.586;2023-12-20T05:30:05;100613.22;;;19.86;100.00
71165;BME280;58859;55.132;-1.586;2023-12-20T05:32:31;100615.34;;;20.09;100.00
71165;BME280;58859;55.132;-1.586;2023-12-20T05:34:56;100611.06;;;20.77;100.00
71165;BME280;58859;55.132;-1.586;2023-12-20T05:37:22;100604.41;;;19.48;100.00
71165;BME280;58859;55.132;-1.586;2023-12-20T05:39:47;100604.16;;;19.63;100.00
71165;BME280;58859;55.132;-1.586;2023-12-20T05:42:13;100586.16;;;19.40;100.00
71165;BME280;58859;55.132;-1.586;2023-12-20T05:44:38;100604.44;;;20.37;100.00
71165;BME280;58859;55.132;-1.586;2023-12-20T05:47:03;100613.34;;;19.98;100.00
71165;BME280;58859;55.132;-1.586;2023-12-20T05:49:29;100606.41;;;19.52;100.00
71165;BME280;58859;55.132;-1.586;2023-12-20T05:51:54;100601.88;;;20.17;100.00
71165;BME280;58859;55.132;-1.586;2023-12-20T05:54:20;100594.09;;;19.20;100.00
71165;BME280;58859;55.132;-1.586;2023-12-20T05:56:46;100597.06;;;20.01;100.00
71165;BME280;58859;55.132;-1.586;2023-12-20T05:59:12;100592.69;;;19.88;100.00
71165;BME280;58859;55.132;-1.586;2023-12-20T06:01:37;100605.31;;;19.80;100.00
71165;BME280;58859;55.132;-1.586;2023-12-20T06:04:03;100608.25;;;20.41;100.00
71165;BME280;58859;55.132;-1.586;2023-12-20T06:06:29;100611.94;;;19.31;100.00
71165;BME280;58859;55.132;-1.586;2023-12-20T06:08:55;100625.97;;;19.12;100.00
71165;BME280;58859;55.132;-1.586;2023-12-20T06:11:21;100634.75;;;19.77;100.00
71165;BME280;58859;55.132;-1.586;2023-12-20T06:13:46;100642.75;;;20.08;100.00
71165;BME280;58859;55.132;-1.586;2023-12-20T06:16:12;100646.66;;;20.43;100.00
71165;BME280;58859;55.132;-1.586;2023-12-20T06:18:37;100658.31;;;20.29;100.00
71165;BME280;58859;55.132;-1.586;2023-12-20T06:21:03;100661.25;;;20.01;100.00
71165;BME280;58859;55.132;-1.586;2023-12-20T06:23:29;100657.28;;;20.24;100.00
71165;BME280;58859;55.132;-1.586;2023-12-20T06:25:54;100655.53;;;19.34;100.00
71165;BME280;58859;55.132;-1.586;2023-12-20T06:28:20;100643.56;;;19.44;100.00
71165;BME280;58859;55.132;-1.586;2023-12-20T06:30:45;100659.22;;;18.67;100.00
71165;BME280;58859;55.132;-1.586;2023-12-20T06:33:14;100645.59;;;18.57;100.00
71165;BME280;58859;55.132;-1.586;2023-12-20T06:35:39;100648.44;;;18.49;100.00
71165;BME280;58859;55.132;-1.586;2023-12-20T06:38:05;100645.84;;;18.95;100.00
71165;BME280;58859;55.132;-1.586;2023-12-20T06:40:30;100652.09;;;18.87;100.00
71165;BME280;58859;55.132;-1.586;2023-12-20T06:42:56;100637.66;;;19.62;100.00
71165;BME280;58859;55.132;-1.586;2023-12-20T06:45:21;100661.66;;;18.15;100.00
71165;BME280;58859;55.132;-1.586;2023-12-20T06:47:46;100655.84;;;18.39;100.00
71165;BME280;58859;55.132;-1.586;2023-12-20T06:50:12;100662.66;;;18.94;100.00
71165;BME280;58859;55.132;-1.586;2023-12-20T06:52:37;100663.06;;;18.98;100.00
71165;BME280;58859;55.132;-1.586;2023-12-20T06:55:03;100669.34;;;19.03;100.00
71165;BME280;58859;55.132;-1.586;2023-12-20T06:57:29;100673.34;;;19.71;100.00
71165;BME280;58859;55.132;-1.586;2023-12-20T06:59:54;100679.63;;;19.83;100.00
71165;BME280;58859;55.132;-1.586;2023-12-20T07:02:20;100674.34;;;19.77;100.00
71165;BME280;58859;55.132;-1.586;2023-12-20T07:04:47;100655.75;;;19.32;100.00
71165;BME280;58859;55.132;-1.586;2023-12-20T07:07:13;100668.13;;;19.06;100.00
71165;BME280;58859;55.132;-1.586;2023-12-20T07:09:38;100675.91;;;20.48;100.00
71165;BME280;58859;55.132;-1.586;2023-12-20T07:12:04;100678.25;;;20.25;100.00
71165;BME280;58859;55.132;-1.586;2023-12-20T07:14:29;100672.19;;;19.15;100.00
71165;BME280;58859;55.132;-1.586;2023-12-20T07:16:55;100677.06;;;19.18;100.00
71165;BME280;58859;55.132;-1.586;2023-12-20T07:19:20;100676.56;;;19.86;100.00
71165;BME280;58859;55.132;-1.586;2023-12-20T07:21:46;100674.88;;;19.98;100.00
71165;BME280;58859;55.132;-1.586;2023-12-20T07:24:11;100670.06;;;19.89;100.00
71165;BME280;58859;55.132;-1.586;2023-12-20T07:26:37;100673.13;;;21.24;100.00
71165;BME280;58859;55.132;-1.586;2023-12-20T07:29:03;100675.66;;;20.12;100.00
71165;BME280;58859;55.132;-1.586;2023-12-20T07:31:29;100679.97;;;20.51;100.00
71165;BME280;58859;55.132;-1.586;2023-12-20T07:33:54;100684.75;;;19.59;100.00
71165;BME280;58859;55.132;-1.586;2023-12-20T07:36:20;100687.38;;;19.65;100.00
71165;BME280;58859;55.132;-1.586;2023-12-20T07:38:46;100680.97;;;20.05;100.00
71165;BME280;58859;55.132;-1.586;2023-12-20T07:41:12;100669.03;;;20.41;100.00
71165;BME280;58859;55.132;-1.586;2023-12-20T07:43:38;100675.50;;;20.45;100.00
71165;BME280;58859;55.132;-1.586;2023-12-20T07:46:07;100661.75;;;20.36;100.00
71165;BME280;58859;55.132;-1.586;2023-12-20T07:48:36;100654.56;;;20.43;100.00
71165;BME280;58859;55.132;-1.586;2023-12-20T07:51:03;100657.59;;;20.47;100.00
71165;BME280;58859;55.132;-1.586;2023-12-20T07:53:28;100651.59;;;20.33;100.00
71165;BME280;58859;55.132;-1.586;2023-12-20T07:55:55;100652.19;;;20.67;100.00
71165;BME280;58859;55.132;-1.586;2023-12-20T07:58:20;100646.88;;;20.42;100.00
71165;BME280;58859;55.132;-1.586;2023-12-20T08:00:46;100653.28;;;20.59;100.00
71165;BME280;58859;55.132;-1.586;2023-12-20T08:03:11;100644.16;;;20.17;100.00
71165;BME280;58859;55.132;-1.586;2023-12-20T08:05:38;100655.31;;;20.26;100.00
71165;BME280;58859;55.132;-1.586;2023-12-20T08:08:06;100664.69;;;19.25;100.00
71165;BME280;58859;55.132;-1.586;2023-12-20T08:10:31;100621.91;;;19.93;100.00
71165;BME280;58859;55.132;-1.586;2023-12-20T08:12:57;100657.13;;;19.61;100.00
71165;BME280;58859;55.132;-1.586;2023-12-20T08:15:22;100658.63;;;19.44;100.00
71165;BME280;58859;55.132;-1.586;2023-12-20T08:17:48;100675.19;;;19.77;100.00
71165;BME280;58859;55.132;-1.586;2023-12-20T08:20:16;100656.94;;;20.14;100.00
71165;BME280;58859;55.132;-1.586;2023-12-20T08:22:42;100649.00;;;20.58;100.00
71165;BME280;58859;55.132;-1.586;2023-12-20T08:25:07;100670.09;;;20.64;100.00
71165;BME280;58859;55.132;-1.586;2023-12-20T08:27:33;100661.75;;;20.92;100.00
71165;BME280;58859;55.132;-1.586;2023-12-20T08:29:59;100652.38;;;20.40;100.00
71165;BME280;58859;55.132;-1.586;2023-12-20T08:32:27;100645.00;;;20.80;100.00
71165;BME280;58859;55.132;-1.586;2023-12-20T08:34:53;100642.97;;;20.51;100.00
71165;BME280;58859;55.132;-1.586;2023-12-20T08:37:18;100639.41;;;21.38;100.00
71165;BME280;58859;55.132;-1.586;2023-12-20T08:39:43;100636.66;;;21.51;100.00
71165;BME280;58859;55.132;-1.586;2023-12-20T08:42:09;100639.81;;;19.78;100.00
71165;BME280;58859;55.132;-1.586;2023-12-20T08:44:34;100637.81;;;19.74;100.00
71165;BME280;58859;55.132;-1.586;2023-12-20T08:47:00;100639.94;;;21.46;100.00
71165;BME280;58859;55.132;-1.586;2023-12-20T08:49:25;100623.97;;;22.78;100.00
71165;BME280;58859;55.132;-1.586;2023-12-20T08:51:51;100623.19;;;21.52;100.00
71165;BME280;58859;55.132;-1.586;2023-12-20T08:54:16;100628.66;;;20.21;100.00
71165;BME280;58859;55.132;-1.586;2023-12-20T08:56:42;100618.75;;;20.79;100.00
71165;BME280;58859;55.132;-1.586;2023-12-20T08:59:08;100613.19;;;20.87;100.00
71165;BME280;58859;55.132;-1.586;2023-12-20T09:01:34;100620.56;;;20.16;100.00
71165;BME280;58859;55.132;-1.586;2023-12-20T09:04:00;100610.69;;;20.42;100.00
71165;BME280;58859;55.132;-1.586;2023-12-20T09:06:25;100605.47;;;20.29;100.00
71165;BME280;58859;55.132;-1.586;2023-12-20T09:08:51;100617.41;;;20.38;100.00
71165;BME280;58859;55.132;-1.586;2023-12-20T09:11:17;100620.72;;;19.89;100.00
71165;BME280;58859;55.132;-1.586;2023-12-20T09:13:43;100623.72;;;18.96;100.00
71165;BME280;58859;55.132;-1.586;2023-12-20T09:16:09;100603.22;;;19.18;100.00
71165;BME280;58859;55.132;-1.586;2023-12-20T09:18:35;100616.72;;;19.74;100.00
71165;BME280;58859;55.132;-1.586;2023-12-20T09:21:00;100597.97;;;19.18;100.00
71165;BME280;58859;55.132;-1.586;2023-12-20T09:23:27;100601.25;;;18.67;100.00
71165;BME280;58859;55.132;-1.586;2023-12-20T09:25:52;100602.06;;;20.29;100.00
71165;BME280;58859;55.132;-1.586;2023-12-20T09:28:18;100601.53;;;20.07;100.00
71165;BME280;58859;55.132;-1.586;2023-12-20T09:30:43;100597.50;;;19.54;100.00
71165;BME280;58859;55.132;-1.586;2023-12-20T09:33:10;100588.13;;;20.71;100.00
71165;BME280;58859;55.132;-1.586;2023-12-20T09:35:36;100579.47;;;20.33;100.00
71165;BME280;58859;55.132;-1.586;2023-12-20T09:38:02;100589.91;;;20.77;100.00
71165;BME280;58859;55.132;-1.586;2023-12-20T09:40:27;100587.22;;;20.21;100.00
71165;BME280;58859;55.132;-1.586;2023-12-20T09:42:58;100580.81;;;20.67;100.00
71165;BME280;58859;55.132;-1.586;2023-12-20T09:45:26;100580.19;;;20.96;100.00
71165;BME280;58859;55.132;-1.586;2023-12-20T09:47:53;100576.06;;;20.19;100.00
71165;BME280;58859;55.132;-1.586;2023-12-20T09:50:20;100574.81;;;19.39;100.00
71165;BME280;58859;55.132;-1.586;2023-12-20T09:52:50;100566.94;;;20.15;100.00
71165;BME280;58859;55.132;-1.586;2023-12-20T09:55:17;100562.84;;;20.26;100.00
71165;BME280;58859;55.132;-1.586;2023-12-20T09:57:44;100560.25;;;21.18;100.00
71165;BME280;58859;55.132;-1.586;2023-12-20T10:00:10;100562.84;;;19.88;100.00
71165;BME280;58859;55.132;-1.586;2023-12-20T10:02:38;100552.09;;;21.19;100.00
71165;BME280;58859;55.132;-1.586;2023-12-20T10:05:08;100541.25;;;21.57;100.00
71165;BME280;58859;55.132;-1.586;2023-12-20T10:07:36;100546.22;;;20.93;100.00
71165;BME280;58859;55.132;-1.586;2023-12-20T10:10:01;100527.00;;;20.86;100.00
71165;BME280;58859;55.132;-1.586;2023-12-20T10:12:27;100509.88;;;21.43;100.00
71165;BME280;58859;55.132;-1.586;2023-12-20T10:14:52;100505.13;;;20.72;100.00
71165;BME280;58859;55.132;-1.586;2023-12-20T10:17:18;100494.09;;;20.01;100.00
71165;BME280;58859;55.132;-1.586;2023-12-20T10:19:43;100486.44;;;21.46;100.00
71165;BME280;58859;55.132;-1.586;2023-12-20T10:22:10;100477.13;;;20.46;100.00
71165;BME280;58859;55.132;-1.586;2023-12-20T10:24:35;100468.03;;;21.40;100.00
71165;BME280;58859;55.132;-1.586;2023-12-20T10:27:05;100468.91;;;21.93;100.00
71165;BME280;58859;55.132;-1.586;2023-12-20T10:29:34;100472.84;;;21.43;100.00
71165;BME280;58859;55.132;-1.586;2023-12-20T10:32:26;100456.38;;;22.00;100.00
71165;BME280;58859;55.132;-1.586;2023-12-20T10:34:53;100429.34;;;22.33;100.00
71165;BME280;58859;55.132;-1.586;2023-12-20T10:37:19;100421.63;;;20.46;100.00
71165;BME280;58859;55.132;-1.586;2023-12-20T10:39:49;100408.81;;;21.23;100.00
71165;BME280;58859;55.132;-1.586;2023-12-20T10:42:16;100405.69;;;21.55;100.00
71165;BME280;58859;55.132;-1.586;2023-12-20T10:44:42;100395.78;;;21.21;100.00
71165;BME280;58859;55.132;-1.586;2023-12-20T10:47:09;100396.41;;;20.87;100.00
71165;BME280;58859;55.132;-1.586;2023-12-20T10:49:38;100401.66;;;21.53;100.00
71165;BME280;58859;55.132;-1.586;2023-12-20T10:52:05;100398.00;;;20.33;100.00
71165;BME280;58859;55.132;-1.586;2023-12-20T10:54:31;100396.38;;;20.32;100.00
71165;BME280;58859;55.132;-1.586;2023-12-20T10:56:57;100388.34;;;19.96;100.00
71165;BME280;58859;55.132;-1.586;2023-12-20T10:59:24;100353.22;;;20.93;100.00
71165;BME280;58859;55.132;-1.586;2023-12-20T11:01:50;100332.13;;;21.46;100.00
71165;BME280;58859;55.132;-1.586;2023-12-20T11:04:22;100329.78;;;21.26;100.00
71165;BME280;58859;55.132;-1.586;2023-12-20T11:06:52;100315.38;;;20.92;100.00
71165;BME280;58859;55.132;-1.586;2023-12-20T11:09:26;100296.03;;;21.86;100.00
71165;BME280;58859;55.132;-1.586;2023-12-20T11:14:52;100281.41;;;20.48;100.00
71165;BME280;58859;55.132;-1.586;2023-12-20T11:17:19;100281.56;;;22.52;100.00
71165;BME280;58859;55.132;-1.586;2023-12-20T11:22:26;100275.22;;;21.66;100.00
71165;BME280;58859;55.132;-1.586;2023-12-20T11:24:58;100275.41;;;21.30;100.00
71165;BME280;58859;55.132;-1.586;2023-12-20T11:27:24;100291.38;;;18.60;100.00
71165;BME280;58859;55.132;-1.586;2023-12-20T11:29:54;100270.69;;;21.44;100.00
71165;BME280;58859;55.132;-1.586;2023-12-20T11:35:01;100298.34;;;22.29;100.00
71165;BME280;58859;55.132;-1.586;2023-12-20T11:37:36;100286.84;;;22.23;100.00
71165;BME280;58859;55.132;-1.586;2023-12-20T11:40:06;100285.97;;;21.30;100.00
71165;BME280;58859;55.132;-1.586;2023-12-20T11:42:48;100283.44;;;21.24;100.00
71165;BME280;58859;55.132;-1.586;2023-12-20T11:45:15;100264.88;;;21.88;100.00
71165;BME280;58859;55.132;-1.586;2023-12-20T11:47:46;100263.56;;;21.44;100.00
71165;BME280;58859;55.132;-1.586;2023-12-20T11:50:12;100264.06;;;21.64;100.00
71165;BME280;58859;55.132;-1.586;2023-12-20T11:52:38;100260.03;;;21.50;100.00
71165;BME280;58859;55.132;-1.586;2023-12-20T11:55:03;100255.38;;;20.93;100.00
71165;BME280;58859;55.132;-1.586;2023-12-20T11:57:30;100250.09;;;22.27;100.00
71165;BME280;58859;55.132;-1.586;2023-12-20T11:59:55;100245.53;;;21.76;100.00
71165;BME280;58859;55.132;-1.586;2023-12-20T12:02:21;100238.91;;;22.93;100.00
71165;BME280;58859;55.132;-1.586;2023-12-20T12:04:48;100233.31;;;22.78;100.00
71165;BME280;58859;55.132;-1.586;2023-12-20T12:07:14;100236.31;;;21.55;100.00
71165;BME280;58859;55.132;-1.586;2023-12-20T12:09:39;100233.19;;;22.05;100.00
71165;BME280;58859;55.132;-1.586;2023-12-20T12:12:05;100233.91;;;22.97;100.00
71165;BME280;58859;55.132;-1.586;2023-12-20T12:14:32;100224.16;;;22.57;100.00
71165;BME280;58859;55.132;-1.586;2023-12-20T12:16:57;100215.91;;;23.32;100.00
71165;BME280;58859;55.132;-1.586;2023-12-20T12:19:23;100197.94;;;22.16;100.00
71165;BME280;58859;55.132;-1.586;2023-12-20T12:21:50;100199.72;;;21.64;100.00
71165;BME280;58859;55.132;-1.586;2023-12-20T12:24:20;100186.91;;;21.14;100.00
71165;BME280;58859;55.132;-1.586;2023-12-20T12:26:50;100181.25;;;20.99;100.00
71165;BME280;58859;55.132;-1.586;2023-12-20T12:29:16;100168.44;;;23.69;100.00
71165;BME280;58859;55.132;-1.586;2023-12-20T12:31:42;100161.66;;;22.16;100.00
71165;BME280;58859;55.132;-1.586;2023-12-20T12:34:07;100150.03;;;19.89;100.00